Time;durP1;ratioP1;P1;durP2;ratioP2;P2;SDS_P1;SDS_P2;PMS_P1;PMS_P2;Temp;Humidity;BMP_temperature;BMP_pressure;BME280_temperature;BME280_humidity;BME280_pressure;Samples;Min_cycle;Max_cycle;Signal;HPM_P1;HPM_P2
2021/07/25 00:01:37;;;;;;;17.30;8.73;;;;;;;;;;5016762;28;20148;-78
2021/07/25 00:04:05;;;;;;;17.92;9.55;;;;;;;;;;5007077;28;20045;-79
2021/07/25 00:06:32;;;;;;;18.67;9.45;;;;;;;;;;5024022;28;20048;-79
2021/07/25 00:08:59;;;;;;;19.67;9.63;;;;;;;;;;5027027;28;20127;-79
2021/07/25 00:11:27;;;;;;;21.75;9.60;;;;;;;;;;5022963;28;20049;-79
2021/07/25 00:13:57;;;;;;;17.50;9.13;;;;;;;;;;5025651;28;20045;-79
2021/07/25 00:16:24;;;;;;;18.30;10.20;;;;;;;;;;5015111;28;20058;-79
2021/07/25 00:18:51;;;;;;;18.80;10.00;;;;;;;;;;5017145;28;20061;-78
2021/07/25 00:21:19;;;;;;;20.38;10.63;;;;;;;;;;5023571;28;20092;-78
2021/07/25 00:23:47;;;;;;;19.80;10.45;;;;;;;;;;5017585;28;20565;-78
2021/07/25 00:26:17;;;;;;;15.98;10.38;;;;;;;;;;5024486;28;20132;-79
2021/07/25 00:28:47;;;;;;;22.38;9.75;;;;;;;;;;5024108;28;20140;-79
2021/07/25 00:31:15;;;;;;;19.58;10.57;;;;;;;;;;5025086;28;20061;-79
2021/07/25 00:33:43;;;;;;;21.98;10.48;;;;;;;;;;5024213;28;20112;-78
2021/07/25 00:36:11;;;;;;;18.58;10.48;;;;;;;;;;5021781;28;20481;-78
2021/07/25 00:38:38;;;;;;;24.88;10.18;;;;;;;;;;5025301;28;20140;-78
2021/07/25 00:41:10;;;;;;;15.82;9.85;;;;;;;;;;5024673;28;20163;-78
2021/07/25 00:43:37;;;;;;;20.95;10.52;;;;;;;;;;5025327;28;20860;-78
2021/07/25 00:46:05;;;;;;;23.33;10.38;;;;;;;;;;5025107;28;20132;-78
2021/07/25 00:48:32;;;;;;;21.63;10.43;;;;;;;;;;5018646;28;20056;-78
2021/07/25 00:50:59;;;;;;;21.27;11.57;;;;;;;;;;5019789;28;20137;-78
2021/07/25 00:53:27;;;;;;;19.83;10.30;;;;;;;;;;5026122;28;20092;-78
2021/07/25 00:55:55;;;;;;;21.30;11.13;;;;;;;;;;5024486;28;20057;-78
2021/07/25 00:58:22;;;;;;;20.23;10.23;;;;;;;;;;5024243;28;20053;-78
2021/07/25 01:00:49;;;;;;;21.55;11.45;;;;;;;;;;5014864;28;20136;-78
2021/07/25 01:03:22;;;;;;;18.70;11.23;;;;;;;;;;5014692;28;20557;-78
2021/07/25 01:05:59;;;;;;;23.13;10.90;;;;;;;;;;5022524;28;20046;-78
2021/07/25 01:08:26;;;;;;;21.55;10.60;;;;;;;;;;5017498;28;20046;-78
2021/07/25 01:10:54;;;;;;;16.33;10.15;;;;;;;;;;5012944;28;20075;-78
2021/07/25 01:13:27;;;;;;;16.42;10.63;;;;;;;;;;5021240;28;20152;-78
2021/07/25 01:15:55;;;;;;;20.75;11.05;;;;;;;;;;5019410;28;20049;-78
2021/07/25 01:18:22;;;;;;;19.25;10.98;;;;;;;;;;5020966;28;20825;-78
2021/07/25 01:20:51;;;;;;;18.90;11.20;;;;;;;;;;5021207;28;20511;-78
2021/07/25 01:23:18;;;;;;;19.20;11.25;;;;;;;;;;5015223;28;20504;-78
2021/07/25 01:25:46;;;;;;;16.13;11.02;;;;;;;;;;5023912;28;20222;-78
2021/07/25 01:28:23;;;;;;;22.95;12.00;;;;;;;;;;5023343;28;20053;-78
2021/07/25 01:30:53;;;;;;;20.88;11.45;;;;;;;;;;5019599;28;20057;-78
2021/07/25 01:33:23;;;;;;;23.92;11.55;;;;;;;;;;5023778;28;20065;-77
2021/07/25 01:35:51;;;;;;;18.63;11.35;;;;;;;;;;5025387;28;20061;-78
2021/07/25 01:38:18;;;;;;;22.05;12.13;;;;;;;;;;5024526;28;20049;-78
2021/07/25 01:41:02;;;;;;;17.35;11.25;;;;;;;;;;5016986;28;20115;-78
2021/07/25 01:43:31;;;;;;;21.55;11.85;;;;;;;;;;5020909;28;20042;-79
2021/07/25 01:45:58;;;;;;;20.65;11.10;;;;;;;;;;5014889;28;20227;-78
2021/07/25 01:48:26;;;;;;;22.90;11.73;;;;;;;;;;5024051;28;20119;-79
2021/07/25 01:50:53;;;;;;;29.23;13.35;;;;;;;;;;5022129;28;20451;-78
2021/07/25 01:53:20;;;;;;;17.52;11.18;;;;;;;;;;5020448;28;20080;-78
2021/07/25 01:55:47;;;;;;;25.30;12.85;;;;;;;;;;5017452;28;20055;-78
2021/07/25 01:58:15;;;;;;;24.30;11.90;;;;;;;;;;5024653;28;20046;-78
2021/07/25 02:00:42;;;;;;;22.58;12.57;;;;;;;;;;5022722;28;20041;-78
2021/07/25 02:03:09;;;;;;;23.58;12.10;;;;;;;;;;5018912;28;20478;-78
2021/07/25 02:05:37;;;;;;;19.63;10.95;;;;;;;;;;5021670;28;20149;-78
2021/07/25 02:08:05;;;;;;;18.45;11.63;;;;;;;;;;5021044;28;20065;-78
2021/07/25 02:10:32;;;;;;;25.98;11.73;;;;;;;;;;5027253;28;20089;-78
2021/07/25 02:12:59;;;;;;;20.63;11.52;;;;;;;;;;5027032;28;20144;-79
2021/07/25 02:15:26;;;;;;;21.20;11.63;;;;;;;;;;5023047;28;20136;-78
2021/07/25 02:17:53;;;;;;;24.48;11.70;;;;;;;;;;5020338;28;20049;-78
2021/07/25 02:20:21;;;;;;;19.95;11.80;;;;;;;;;;5025440;28;20164;-78
2021/07/25 02:22:48;;;;;;;21.85;11.23;;;;;;;;;;5024524;28;20132;-78
2021/07/25 02:25:15;;;;;;;26.58;11.88;;;;;;;;;;5026684;28;20160;-78
2021/07/25 02:27:42;;;;;;;23.02;12.45;;;;;;;;;;5027788;28;20124;-78
2021/07/25 02:30:10;;;;;;;20.60;12.20;;;;;;;;;;5028136;28;20136;-78
2021/07/25 02:32:37;;;;;;;20.05;12.52;;;;;;;;;;5027631;28;20152;-78
2021/07/25 02:35:04;;;;;;;19.85;11.73;;;;;;;;;;5021832;28;20136;-78
2021/07/25 02:37:31;;;;;;;24.77;12.75;;;;;;;;;;5025662;28;20083;-78
2021/07/25 02:39:58;;;;;;;20.27;11.25;;;;;;;;;;5020157;28;20128;-78
2021/07/25 02:42:26;;;;;;;22.25;12.25;;;;;;;;;;5024163;28;20160;-78
2021/07/25 02:44:53;;;;;;;21.02;11.55;;;;;;;;;;5026399;28;20145;-78
2021/07/25 02:47:20;;;;;;;28.10;11.60;;;;;;;;;;5027661;28;20038;-78
2021/07/25 02:49:47;;;;;;;32.17;11.70;;;;;;;;;;5025045;28;20132;-78
2021/07/25 02:52:14;;;;;;;25.85;12.90;;;;;;;;;;5019425;28;20128;-78
2021/07/25 02:54:42;;;;;;;21.10;11.98;;;;;;;;;;5026133;28;20916;-78
2021/07/25 02:57:09;;;;;;;20.58;12.88;;;;;;;;;;5027282;28;20136;-78
2021/07/25 02:59:36;;;;;;;22.33;12.48;;;;;;;;;;5026352;28;20063;-78
2021/07/25 03:02:03;;;;;;;20.40;11.98;;;;;;;;;;5019108;28;20402;-78
2021/07/25 03:04:31;;;;;;;22.83;13.20;;;;;;;;;;5021885;28;20053;-78
2021/07/25 03:06:58;;;;;;;21.55;11.60;;;;;;;;;;5026562;28;20051;-78
2021/07/25 03:09:25;;;;;;;20.10;12.00;;;;;;;;;;5026117;28;20132;-78
2021/07/25 03:11:52;;;;;;;22.67;12.25;;;;;;;;;;5023578;28;20156;-78
2021/07/25 03:14:19;;;;;;;27.15;12.35;;;;;;;;;;5023616;28;20045;-78
2021/07/25 03:16:47;;;;;;;24.05;11.75;;;;;;;;;;5026163;28;20050;-78
2021/07/25 03:19:14;;;;;;;22.27;12.55;;;;;;;;;;5024784;28;20042;-78
2021/07/25 03:21:41;;;;;;;22.00;13.55;;;;;;;;;;5015333;28;20045;-78
2021/07/25 03:24:08;;;;;;;22.27;12.57;;;;;;;;;;5024295;28;20064;-78
2021/07/25 03:26:35;;;;;;;21.05;12.50;;;;;;;;;;5024299;28;20042;-79
2021/07/25 03:29:03;;;;;;;23.77;12.85;;;;;;;;;;5025487;28;20059;-79
2021/07/25 03:31:30;;;;;;;22.17;12.88;;;;;;;;;;5027698;28;20152;-79
2021/07/25 03:33:59;;;;;;;25.13;12.40;;;;;;;;;;5025435;28;20072;-80
2021/07/25 03:36:27;;;;;;;23.80;12.48;;;;;;;;;;5026516;28;20167;-78
2021/07/25 03:38:54;;;;;;;23.05;12.45;;;;;;;;;;5025697;28;20128;-78
2021/07/25 03:41:21;;;;;;;26.42;13.70;;;;;;;;;;5022150;28;20128;-78
2021/07/25 03:43:49;;;;;;;22.35;13.45;;;;;;;;;;5017584;28;20077;-78
2021/07/25 03:46:17;;;;;;;20.50;11.75;;;;;;;;;;5007369;28;20882;-78
2021/07/25 03:48:44;;;;;;;27.15;12.65;;;;;;;;;;5025981;28;20053;-78
2021/07/25 03:51:12;;;;;;;23.45;12.85;;;;;;;;;;5019910;28;20160;-78
2021/07/25 03:53:39;;;;;;;25.88;12.73;;;;;;;;;;5020784;28;20477;-78
2021/07/25 03:56:06;;;;;;;21.30;11.38;;;;;;;;;;5015538;28;20093;-78
2021/07/25 03:58:33;;;;;;;26.00;12.50;;;;;;;;;;5022516;28;20091;-77
2021/07/25 04:01:01;;;;;;;21.90;11.68;;;;;;;;;;5017784;28;20045;-77
2021/07/25 04:03:28;;;;;;;25.20;11.80;;;;;;;;;;5024003;28;20053;-77
2021/07/25 04:05:55;;;;;;;27.52;12.70;;;;;;;;;;5025677;28;20077;-78
2021/07/25 04:08:22;;;;;;;25.92;12.13;;;;;;;;;;5023508;28;20641;-78
2021/07/25 04:10:50;;;;;;;22.67;12.02;;;;;;;;;;5016287;28;20052;-78
2021/07/25 04:13:17;;;;;;;29.95;11.90;;;;;;;;;;5024194;28;20141;-78
2021/07/25 04:15:46;;;;;;;18.05;11.73;;;;;;;;;;5021427;28;20145;-79
2021/07/25 04:18:14;;;;;;;20.02;11.98;;;;;;;;;;5018293;28;20522;-78
2021/07/25 04:20:41;;;;;;;18.70;11.63;;;;;;;;;;5023205;28;20133;-78
2021/07/25 04:23:09;;;;;;;23.52;11.93;;;;;;;;;;5021130;28;20051;-78
2021/07/25 04:25:36;;;;;;;26.73;12.35;;;;;;;;;;5017549;28;20052;-78
2021/07/25 04:28:04;;;;;;;17.98;11.27;;;;;;;;;;5023335;28;20049;-78
2021/07/25 04:30:32;;;;;;;21.05;12.43;;;;;;;;;;5014827;28;20457;-78
2021/07/25 04:33:00;;;;;;;21.88;11.90;;;;;;;;;;5023283;28;20160;-78
2021/07/25 04:35:28;;;;;;;23.15;12.80;;;;;;;;;;5023898;28;20753;-78
2021/07/25 04:37:55;;;;;;;18.90;11.95;;;;;;;;;;5022740;28;20152;-78
2021/07/25 04:40:26;;;;;;;18.20;11.70;;;;;;;;;;5023605;28;20136;-78
2021/07/25 04:42:56;;;;;;;22.75;12.77;;;;;;;;;;5021290;28;20124;-78
2021/07/25 04:45:26;;;;;;;22.80;12.73;;;;;;;;;;5024032;28;20045;-78
2021/07/25 04:47:56;;;;;;;37.88;13.02;;;;;;;;;;5023015;28;20053;-78
2021/07/25 04:50:26;;;;;;;21.63;12.00;;;;;;;;;;5023320;28;20468;-78
2021/07/25 04:52:57;;;;;;;19.35;11.85;;;;;;;;;;5022715;28;20844;-78
2021/07/25 04:55:24;;;;;;;23.80;12.18;;;;;;;;;;5024130;28;20109;-77
2021/07/25 04:58:02;;;;;;;18.38;11.77;;;;;;;;;;5024471;28;20052;-77
2021/07/25 05:00:30;;;;;;;20.45;11.48;;;;;;;;;;5023878;28;20049;-77
2021/07/25 05:03:05;;;;;;;17.80;12.18;;;;;;;;;;5023034;28;20041;-78
2021/07/25 05:05:32;;;;;;;31.13;13.27;;;;;;;;;;5023833;28;20053;-77
2021/07/25 05:08:01;;;;;;;19.40;12.57;;;;;;;;;;5023977;28;20061;-77
2021/07/25 05:10:29;;;;;;;20.55;12.15;;;;;;;;;;5022153;28;20436;-77
2021/07/25 05:13:03;;;;;;;23.70;12.60;;;;;;;;;;5017234;28;20439;-77
2021/07/25 05:15:34;;;;;;;25.45;12.13;;;;;;;;;;5022808;28;20057;-77
2021/07/25 05:18:08;;;;;;;18.05;11.73;;;;;;;;;;5020045;28;20394;-77
2021/07/25 05:24:02;;;;;;;20.00;11.18;;;;;;;;;;4999548;28;20159;-76
2021/07/25 05:26:29;;;;;;;20.42;12.48;;;;;;;;;;5007286;28;20064;-76
2021/07/25 05:28:58;;;;;;;20.42;13.38;;;;;;;;;;4987755;28;20054;-76
2021/07/25 05:31:30;;;;;;;22.48;12.23;;;;;;;;;;4987620;28;20161;-76
2021/07/25 05:33:58;;;;;;;20.73;12.18;;;;;;;;;;4986014;28;20061;-76
2021/07/25 05:36:25;;;;;;;28.20;13.00;;;;;;;;;;5005055;28;20161;-76
2021/07/25 05:38:52;;;;;;;22.23;12.18;;;;;;;;;;5005578;28;20466;-76
2021/07/25 05:41:20;;;;;;;20.75;11.13;;;;;;;;;;5004300;28;20078;-76
2021/07/25 05:43:47;;;;;;;23.40;12.63;;;;;;;;;;5006129;28;20141;-76
2021/07/25 05:46:14;;;;;;;20.02;12.05;;;;;;;;;;5008514;28;20049;-78
2021/07/25 05:48:41;;;;;;;19.33;12.23;;;;;;;;;;5010776;28;20506;-78
2021/07/25 05:51:09;;;;;;;23.17;13.45;;;;;;;;;;5009931;28;20073;-79
2021/07/25 05:53:36;;;;;;;20.35;12.65;;;;;;;;;;5007255;28;20153;-76
2021/07/25 05:56:03;;;;;;;24.48;13.00;;;;;;;;;;5005174;28;20136;-76
2021/07/25 05:58:30;;;;;;;19.38;12.35;;;;;;;;;;4992619;28;20554;-76
2021/07/25 06:00:57;;;;;;;19.42;12.38;;;;;;;;;;5002244;28;20045;-76
2021/07/25 06:03:25;;;;;;;22.30;12.45;;;;;;;;;;5003683;28;20195;-75
2021/07/25 06:05:52;;;;;;;20.00;12.90;;;;;;;;;;5005626;28;20053;-75
2021/07/25 06:08:19;;;;;;;18.88;12.00;;;;;;;;;;5006962;28;20495;-76
2021/07/25 06:10:46;;;;;;;20.27;12.20;;;;;;;;;;4989638;28;20148;-76
2021/07/25 06:13:13;;;;;;;20.85;12.20;;;;;;;;;;4989061;28;20159;-76
2021/07/25 06:15:41;;;;;;;24.40;12.60;;;;;;;;;;4986073;28;20534;-77
2021/07/25 06:18:08;;;;;;;20.05;12.60;;;;;;;;;;5007963;28;20168;-77
2021/07/25 06:20:35;;;;;;;21.77;12.88;;;;;;;;;;5007966;28;20132;-77
2021/07/25 06:23:03;;;;;;;28.42;15.13;;;;;;;;;;4991777;28;20133;-79
2021/07/25 06:25:31;;;;;;;25.90;14.05;;;;;;;;;;5003740;28;20050;-77
2021/07/25 06:28:00;;;;;;;26.63;12.85;;;;;;;;;;5004098;28;20128;-76
2021/07/25 06:30:27;;;;;;;19.60;13.07;;;;;;;;;;5001630;28;20046;-76
2021/07/25 06:32:57;;;;;;;29.77;12.60;;;;;;;;;;5002353;28;20129;-76
2021/07/25 06:35:26;;;;;;;23.85;12.27;;;;;;;;;;5003311;28;20451;-76
2021/07/25 06:37:54;;;;;;;19.75;12.27;;;;;;;;;;5015724;28;20073;-76
2021/07/25 06:40:21;;;;;;;24.83;13.38;;;;;;;;;;4999404;28;20125;-76
2021/07/25 06:42:49;;;;;;;19.73;12.20;;;;;;;;;;5004959;28;20570;-79
2021/07/25 06:45:16;;;;;;;22.73;12.20;;;;;;;;;;4986746;28;20553;-78
2021/07/25 06:47:50;;;;;;;22.90;11.95;;;;;;;;;;5005209;28;20495;-78
2021/07/25 06:50:18;;;;;;;18.48;12.50;;;;;;;;;;5002336;28;20049;-78
2021/07/25 06:52:45;;;;;;;21.95;11.93;;;;;;;;;;4987692;28;20137;-79
2021/07/25 06:55:13;;;;;;;21.73;12.32;;;;;;;;;;5002506;28;20116;-78
2021/07/25 06:57:41;;;;;;;23.40;13.43;;;;;;;;;;5001258;28;20045;-78
2021/07/25 07:00:09;;;;;;;20.50;13.27;;;;;;;;;;5002404;28;20149;-78
2021/07/25 07:02:48;;;;;;;18.73;12.80;;;;;;;;;;4997829;28;20054;-78
2021/07/25 07:05:17;;;;;;;20.58;12.93;;;;;;;;;;4995056;28;20045;-78
2021/07/25 07:07:48;;;;;;;27.67;12.70;;;;;;;;;;4998352;28;20041;-78
2021/07/25 07:10:16;;;;;;;21.88;12.98;;;;;;;;;;4987773;28;20100;-78
2021/07/25 07:12:43;;;;;;;28.15;13.13;;;;;;;;;;4996517;28;20086;-78
2021/07/25 07:15:11;;;;;;;20.30;13.25;;;;;;;;;;4996658;28;20629;-78
2021/07/25 07:17:39;;;;;;;17.73;11.95;;;;;;;;;;4997702;28;20714;-78
2021/07/25 07:20:10;;;;;;;21.13;13.52;;;;;;;;;;4983344;28;20053;-79
2021/07/25 07:22:38;;;;;;;19.27;13.00;;;;;;;;;;4996838;28;20081;-78
2021/07/25 07:25:06;;;;;;;26.10;13.40;;;;;;;;;;5000444;28;20816;-78
2021/07/25 07:27:33;;;;;;;19.90;12.73;;;;;;;;;;5007361;28;20125;-78
2021/07/25 07:30:02;;;;;;;18.75;12.32;;;;;;;;;;5003381;28;20133;-78
2021/07/25 07:32:29;;;;;;;22.48;12.63;;;;;;;;;;5004119;28;20077;-77
2021/07/25 07:34:57;;;;;;;19.08;12.73;;;;;;;;;;5006523;28;20467;-79
2021/07/25 07:37:24;;;;;;;22.40;13.32;;;;;;;;;;5007181;28;20081;-77
2021/07/25 07:39:52;;;;;;;19.63;12.55;;;;;;;;;;5004659;28;20054;-78
2021/07/25 07:42:19;;;;;;;21.02;12.88;;;;;;;;;;4986438;28;20050;-79
2021/07/25 07:44:46;;;;;;;18.88;12.05;;;;;;;;;;5006420;28;20129;-79
2021/07/25 07:47:13;;;;;;;20.48;13.25;;;;;;;;;;5005647;28;20128;-79
2021/07/25 07:49:40;;;;;;;28.17;12.75;;;;;;;;;;5007097;28;20077;-79
2021/07/25 07:52:08;;;;;;;18.50;12.05;;;;;;;;;;5003361;28;20140;-79
2021/07/25 07:54:36;;;;;;;22.30;13.38;;;;;;;;;;5005269;28;20072;-79
2021/07/25 07:57:03;;;;;;;21.65;14.10;;;;;;;;;;5004636;28;20161;-79
2021/07/25 07:59:30;;;;;;;27.45;13.73;;;;;;;;;;5005934;28;20140;-80
2021/07/25 08:01:58;;;;;;;22.70;13.98;;;;;;;;;;5003863;28;20050;-80
2021/07/25 08:04:26;;;;;;;25.58;13.88;;;;;;;;;;5009055;28;20166;-79
2021/07/25 08:06:53;;;;;;;22.35;13.32;;;;;;;;;;4997425;28;20161;-79
2021/07/25 08:09:20;;;;;;;22.75;14.00;;;;;;;;;;5004481;28;20085;-80
2021/07/25 08:11:47;;;;;;;24.50;14.32;;;;;;;;;;4990023;28;20162;-78
2021/07/25 08:14:15;;;;;;;22.45;13.55;;;;;;;;;;5006843;28;20053;-81
2021/07/25 08:16:42;;;;;;;22.75;13.90;;;;;;;;;;4991483;28;20058;-80
2021/07/25 08:19:10;;;;;;;25.35;14.07;;;;;;;;;;4989336;28;20129;-80
2021/07/25 08:21:39;;;;;;;23.70;14.68;;;;;;;;;;5007417;28;20140;-80
2021/07/25 08:24:07;;;;;;;22.30;14.40;;;;;;;;;;4988965;28;20085;-80
2021/07/25 08:26:34;;;;;;;29.38;14.10;;;;;;;;;;5006400;28;20763;-81
2021/07/25 08:29:01;;;;;;;24.90;14.13;;;;;;;;;;5009064;28;20057;-81
2021/07/25 08:31:31;;;;;;;25.25;14.93;;;;;;;;;;5001535;28;20073;-79
2021/07/25 08:33:59;;;;;;;19.92;14.25;;;;;;;;;;5007426;28;20052;-83
2021/07/25 08:36:26;;;;;;;24.45;13.65;;;;;;;;;;4989899;28;21436;-80
2021/07/25 08:38:54;;;;;;;21.67;13.52;;;;;;;;;;5003690;28;20137;-81
2021/07/25 08:41:36;;;;;;;125.22;22.52;;;;;;;;;;5006770;28;20137;-84
2021/07/25 08:44:18;;;;;;;70.47;17.27;;;;;;;;;;4993845;28;20077;-82
2021/07/25 08:46:46;;;;;;;259.58;38.38;;;;;;;;;;5006743;28;20048;-84
2021/07/25 08:49:17;;;;;;;195.32;34.53;;;;;;;;;;4994240;28;20133;-87
2021/07/25 08:51:50;;;;;;;24.58;13.57;;;;;;;;;;5003497;28;20128;-81
2021/07/25 08:54:18;;;;;;;23.85;14.38;;;;;;;;;;4988257;28;20153;-84
2021/07/25 08:56:47;;;;;;;21.00;13.23;;;;;;;;;;5009482;28;20077;-86
2021/07/25 08:59:16;;;;;;;22.90;14.88;;;;;;;;;;4994011;28;20084;-84
2021/07/25 09:01:51;;;;;;;23.60;13.38;;;;;;;;;;4993219;28;20148;-83
2021/07/25 09:04:18;;;;;;;22.77;13.90;;;;;;;;;;4997752;28;20063;-83
2021/07/25 09:06:50;;;;;;;23.17;14.27;;;;;;;;;;4991882;28;20064;-83
2021/07/25 09:12:30;;;;;;;24.67;13.18;;;;;;;;;;4988281;28;20109;-81
2021/07/25 09:15:01;;;;;;;23.00;13.45;;;;;;;;;;4989875;28;20054;-81
2021/07/25 09:17:29;;;;;;;21.40;15.27;;;;;;;;;;4990638;28;20880;-82
2021/07/25 09:20:17;;;;;;;22.67;14.65;;;;;;;;;;4994433;28;20061;-83
2021/07/25 09:22:53;;;;;;;28.60;14.05;;;;;;;;;;4993930;28;20133;-84
2021/07/25 09:25:20;;;;;;;24.02;14.10;;;;;;;;;;4994341;28;20125;-83
2021/07/25 09:27:58;;;;;;;17.42;12.95;;;;;;;;;;4994341;28;20050;-83
2021/07/25 09:30:28;;;;;;;22.90;13.85;;;;;;;;;;4994469;28;20082;-83
2021/07/25 09:32:56;;;;;;;18.63;14.10;;;;;;;;;;4994967;28;20096;-84
2021/07/25 09:35:24;;;;;;;21.25;13.02;;;;;;;;;;4994681;28;20085;-84
2021/07/25 09:37:56;;;;;;;20.13;13.68;;;;;;;;;;4994171;28;20133;-84
2021/07/25 09:40:28;;;;;;;22.05;13.35;;;;;;;;;;4994288;28;20058;-84
2021/07/25 09:43:11;;;;;;;18.48;13.05;;;;;;;;;;4993838;28;20050;-83
2021/07/25 09:45:54;;;;;;;17.13;11.95;;;;;;;;;;4990601;28;20782;-83
2021/07/25 09:48:35;;;;;;;17.98;13.18;;;;;;;;;;4992906;28;20558;-82
2021/07/25 09:51:04;;;;;;;18.15;12.27;;;;;;;;;;4980566;28;20138;-83
2021/07/25 09:53:54;;;;;;;23.55;13.15;;;;;;;;;;4971813;28;20132;-84
2021/07/25 09:56:25;;;;;;;16.55;12.25;;;;;;;;;;4969469;28;20057;-84
2021/07/25 09:58:52;;;;;;;22.70;12.52;;;;;;;;;;4991129;28;20061;-84
2021/07/25 10:01:38;;;;;;;31.55;11.95;;;;;;;;;;4994341;28;20218;-84
2021/07/25 10:04:21;;;;;;;17.80;12.35;;;;;;;;;;4993807;28;20510;-83
2021/07/25 10:06:49;;;;;;;15.98;11.95;;;;;;;;;;4989900;28;20057;-83
2021/07/25 10:09:20;;;;;;;17.17;12.55;;;;;;;;;;4990337;28;20610;-83
2021/07/25 10:12:04;;;;;;;24.33;12.00;;;;;;;;;;4992794;28;20046;-83
2021/07/25 10:14:33;;;;;;;19.95;12.55;;;;;;;;;;4992969;28;20070;-82
2021/07/25 10:17:04;;;;;;;16.40;11.95;;;;;;;;;;4990807;28;21655;-80
2021/07/25 10:19:41;;;;;;;18.42;12.32;;;;;;;;;;4988474;28;20142;-78
2021/07/25 10:22:13;;;;;;;19.25;12.90;;;;;;;;;;4979017;28;20751;-79
2021/07/25 10:24:45;;;;;;;20.90;12.88;;;;;;;;;;4990859;28;20482;-78
2021/07/25 10:27:19;;;;;;;19.20;11.88;;;;;;;;;;4990937;28;20780;-78
2021/07/25 10:29:48;;;;;;;22.90;12.20;;;;;;;;;;4987226;28;20054;-77
2021/07/25 10:32:19;;;;;;;20.25;10.93;;;;;;;;;;4987921;28;20361;-77
2021/07/25 10:34:50;;;;;;;16.92;11.77;;;;;;;;;;4989900;28;20082;-78
2021/07/25 10:37:18;;;;;;;14.63;11.60;;;;;;;;;;4981915;28;20054;-80
2021/07/25 10:39:51;;;;;;;19.65;11.98;;;;;;;;;;4976934;28;20082;-80
2021/07/25 10:42:20;;;;;;;18.48;11.82;;;;;;;;;;4980405;28;20067;-80
2021/07/25 10:44:47;;;;;;;21.10;12.63;;;;;;;;;;4988980;28;20570;-81
2021/07/25 10:47:18;;;;;;;20.13;12.23;;;;;;;;;;4989463;28;20475;-80
2021/07/25 10:49:45;;;;;;;18.88;12.05;;;;;;;;;;4997022;28;20070;-81
2021/07/25 10:52:14;;;;;;;18.15;12.80;;;;;;;;;;4978587;28;20078;-81
2021/07/25 10:54:47;;;;;;;18.55;12.27;;;;;;;;;;4981929;28;20056;-81
2021/07/25 10:57:14;;;;;;;17.75;12.20;;;;;;;;;;4976789;28;20078;-82
2021/07/25 10:59:55;;;;;;;23.02;12.48;;;;;;;;;;4988284;28;20514;-82
2021/07/25 11:02:22;;;;;;;20.08;12.45;;;;;;;;;;4991738;28;20844;-83
2021/07/25 11:04:53;;;;;;;14.80;11.77;;;;;;;;;;4990100;28;20042;-82
2021/07/25 11:07:25;;;;;;;15.55;11.60;;;;;;;;;;4991509;28;20042;-83
2021/07/25 11:10:01;;;;;;;16.48;11.45;;;;;;;;;;4982733;28;20133;-82
2021/07/25 11:12:54;;;;;;;17.85;11.68;;;;;;;;;;4990587;28;20160;-83
2021/07/25 11:15:32;;;;;;;21.52;12.70;;;;;;;;;;4979787;28;20077;-83
2021/07/25 11:18:07;;;;;;;18.35;12.00;;;;;;;;;;4985638;28;20055;-86
2021/07/25 11:23:21;;;;;;;16.73;10.98;;;;;;;;;;5006613;28;20309;-88
2021/07/25 11:25:54;;;;;;;15.48;11.75;;;;;;;;;;5005239;28;20137;-86
2021/07/25 11:31:12;;;;;;;17.50;11.65;;;;;;;;;;5013567;28;20091;-87
2021/07/25 11:33:43;;;;;;;22.83;11.77;;;;;;;;;;5010496;28;20053;-86
2021/07/25 11:36:15;;;;;;;34.63;12.18;;;;;;;;;;5010525;28;20414;-87
2021/07/25 11:38:43;;;;;;;21.05;11.48;;;;;;;;;;5007412;28;20081;-85
2021/07/25 11:41:23;;;;;;;17.50;11.80;;;;;;;;;;5007165;28;20398;-85
2021/07/25 11:44:01;;;;;;;21.90;11.45;;;;;;;;;;4990528;28;20637;-85
2021/07/25 11:46:40;;;;;;;17.45;12.73;;;;;;;;;;5010803;28;20092;-86
2021/07/25 11:49:10;;;;;;;18.13;10.73;;;;;;;;;;5010654;28;20407;-85
2021/07/25 11:51:41;;;;;;;14.82;11.15;;;;;;;;;;5011991;28;20058;-83
2021/07/25 11:54:08;;;;;;;16.98;11.80;;;;;;;;;;5011005;28;20564;-85
2021/07/25 11:56:37;;;;;;;15.50;11.00;;;;;;;;;;5003439;28;20134;-84
2021/07/25 11:59:07;;;;;;;15.75;10.25;;;;;;;;;;5012132;28;20594;-84
2021/07/25 12:01:36;;;;;;;15.63;11.25;;;;;;;;;;4999254;28;20133;-84
2021/07/25 12:04:22;;;;;;;19.80;11.32;;;;;;;;;;4997336;28;20471;-83
2021/07/25 12:07:03;;;;;;;15.73;11.00;;;;;;;;;;5007432;28;20153;-84
2021/07/25 12:09:31;;;;;;;14.40;10.95;;;;;;;;;;5004973;28;20048;-82
2021/07/25 12:12:03;;;;;;;15.68;11.27;;;;;;;;;;4998549;28;20046;-82
2021/07/25 12:17:35;;;;;;;17.45;10.30;;;;;;;;;;4988605;28;20056;-80
2021/07/25 12:20:12;;;;;;;15.70;11.13;;;;;;;;;;4984285;28;20116;-85
2021/07/25 12:22:54;;;;;;;40.55;12.40;;;;;;;;;;4988896;28;20053;-82
2021/07/25 12:25:21;;;;;;;18.67;11.38;;;;;;;;;;4992195;28;20050;-81
2021/07/25 12:28:01;;;;;;;20.40;11.60;;;;;;;;;;4989294;28;20085;-85
2021/07/25 12:30:54;;;;;;;13.70;10.20;;;;;;;;;;4991294;28;20070;-84
2021/07/25 12:33:26;;;;;;;17.70;10.43;;;;;;;;;;4996298;28;20410;-83
2021/07/25 12:36:23;;;;;;;16.38;11.27;;;;;;;;;;4992996;28;20133;-82
2021/07/25 12:38:53;;;;;;;13.55;9.85;;;;;;;;;;4973946;28;20085;-82
2021/07/25 12:41:40;;;;;;;13.25;10.50;;;;;;;;;;4990217;28;20054;-78
2021/07/25 12:44:07;;;;;;;14.35;10.45;;;;;;;;;;4987056;28;20150;-77
2021/07/25 12:46:51;;;;;;;15.75;10.68;;;;;;;;;;4970728;28;20050;-78
2021/07/25 12:49:18;;;;;;;25.45;11.15;;;;;;;;;;4970822;28;20058;-80
2021/07/25 12:51:46;;;;;;;20.13;10.90;;;;;;;;;;4986042;28;20116;-76
2021/07/25 12:54:13;;;;;;;16.08;11.02;;;;;;;;;;4990827;28;20096;-80
2021/07/25 12:56:40;;;;;;;14.45;10.73;;;;;;;;;;5007442;28;20167;-78
2021/07/25 12:59:09;;;;;;;16.65;10.73;;;;;;;;;;4988568;28;20172;-79
2021/07/25 13:04:12;;;;;;;15.98;9.73;;;;;;;;;;4972362;28;20141;-77
2021/07/25 13:06:43;;;;;;;28.25;10.82;;;;;;;;;;4967447;28;20054;-78
2021/07/25 13:09:11;;;;;;;17.55;11.05;;;;;;;;;;4986772;28;20479;-78
2021/07/25 13:11:42;;;;;;;15.60;10.57;;;;;;;;;;4993410;28;20049;-78
2021/07/25 13:14:10;;;;;;;16.75;11.23;;;;;;;;;;4973263;28;20060;-77
2021/07/25 13:16:38;;;;;;;19.60;10.85;;;;;;;;;;4990149;28;20101;-79
2021/07/25 13:19:06;;;;;;;15.77;10.57;;;;;;;;;;4993290;28;20050;-81
2021/07/25 13:21:33;;;;;;;18.52;10.90;;;;;;;;;;4991585;28;20082;-80
2021/07/25 13:24:02;;;;;;;16.40;10.95;;;;;;;;;;4990293;28;20054;-78
2021/07/25 13:26:30;;;;;;;15.73;10.73;;;;;;;;;;4984351;28;20462;-77
2021/07/25 13:29:00;;;;;;;17.33;10.70;;;;;;;;;;4983340;28;20081;-79
2021/07/25 13:31:27;;;;;;;15.40;9.77;;;;;;;;;;4984242;28;20064;-79
2021/07/25 13:33:54;;;;;;;15.77;9.65;;;;;;;;;;4984063;28;20046;-79
2021/07/25 13:36:23;;;;;;;30.60;10.80;;;;;;;;;;4988430;28;20092;-79
2021/07/25 13:38:50;;;;;;;15.77;10.98;;;;;;;;;;4986280;28;20127;-79
2021/07/25 13:41:18;;;;;;;20.02;10.18;;;;;;;;;;4983169;28;20078;-79
2021/07/25 13:43:50;;;;;;;16.95;10.07;;;;;;;;;;4984531;28;20707;-79
2021/07/25 13:46:20;;;;;;;14.88;10.35;;;;;;;;;;4982127;28;20147;-79
2021/07/25 13:48:48;;;;;;;14.90;10.05;;;;;;;;;;4978313;28;20680;-79
2021/07/25 13:51:16;;;;;;;12.20;10.25;;;;;;;;;;4987111;28;20078;-79
2021/07/25 13:53:45;;;;;;;15.25;10.60;;;;;;;;;;4973638;28;20063;-81
2021/07/25 13:56:18;;;;;;;14.88;10.70;;;;;;;;;;4987465;28;20078;-80
2021/07/25 13:58:45;;;;;;;15.48;10.00;;;;;;;;;;4989525;28;20102;-78
2021/07/25 14:01:13;;;;;;;17.33;10.10;;;;;;;;;;4983639;28;20090;-77
2021/07/25 14:03:41;;;;;;;13.73;10.10;;;;;;;;;;4984858;28;20042;-82
2021/07/25 14:06:08;;;;;;;15.07;10.55;;;;;;;;;;4985784;28;20448;-77
2021/07/25 14:08:36;;;;;;;17.30;10.80;;;;;;;;;;4982499;28;20474;-78
2021/07/25 14:11:13;;;;;;;14.35;10.15;;;;;;;;;;4989568;28;20074;-80
2021/07/25 14:13:40;;;;;;;14.98;9.80;;;;;;;;;;4972124;28;20078;-81
2021/07/25 14:16:23;;;;;;;16.27;10.80;;;;;;;;;;4991688;28;20054;-81
2021/07/25 14:18:51;;;;;;;15.20;9.93;;;;;;;;;;4989322;28;20231;-81
2021/07/25 14:21:19;;;;;;;13.63;9.70;;;;;;;;;;4989228;28;20057;-79
2021/07/25 14:23:46;;;;;;;16.70;10.00;;;;;;;;;;4990580;28;20129;-80
2021/07/25 14:26:13;;;;;;;25.77;9.95;;;;;;;;;;4989146;28;20121;-80
2021/07/25 14:28:41;;;;;;;14.05;10.02;;;;;;;;;;4989670;28;20456;-80
2021/07/25 14:31:10;;;;;;;15.00;9.50;;;;;;;;;;4987235;28;20495;-82
2021/07/25 14:33:38;;;;;;;24.10;10.43;;;;;;;;;;4997055;28;20058;-80
2021/07/25 14:36:09;;;;;;;21.65;10.07;;;;;;;;;;4985000;28;20054;-80
2021/07/25 14:38:38;;;;;;;18.60;10.55;;;;;;;;;;4989355;28;20117;-80
2021/07/25 14:41:06;;;;;;;16.92;10.38;;;;;;;;;;4990068;28;20890;-79
2021/07/25 14:43:35;;;;;;;15.45;9.60;;;;;;;;;;4976154;28;20101;-81
2021/07/25 14:46:02;;;;;;;12.55;9.77;;;;;;;;;;4986774;28;20073;-80
2021/07/25 14:48:29;;;;;;;13.65;9.32;;;;;;;;;;4989287;28;20092;-80
2021/07/25 14:51:04;;;;;;;23.38;11.20;;;;;;;;;;4987196;28;20130;-80